sensor_id;sensor_type;location;lat;lon;timestamp;P1;durP1;ratioP1;P2;durP2;ratioP2
60730;SDS011;46580;52.114;11.674;2022-07-23T00:00:44;9.30;;;5.63;;
60730;SDS011;46580;52.114;11.674;2022-07-23T00:03:11;7.43;;;5.00;;
60730;SDS011;46580;52.114;11.674;2022-07-23T00:05:37;8.43;;;5.40;;
60730;SDS011;46580;52.114;11.674;2022-07-23T00:08:02;9.00;;;5.30;;
60730;SDS011;46580;52.114;11.674;2022-07-23T00:10:27;8.03;;;5.33;;
60730;SDS011;46580;52.114;11.674;2022-07-23T00:12:53;8.93;;;5.10;;
60730;SDS011;46580;52.114;11.674;2022-07-23T00:15:18;10.20;;;5.13;;
60730;SDS011;46580;52.114;11.674;2022-07-23T00:17:43;9.73;;;5.23;;
60730;SDS011;46580;52.114;11.674;2022-07-23T00:20:09;8.03;;;5.27;;
60730;SDS011;46580;52.114;11.674;2022-07-23T00:22:34;7.47;;;5.77;;
60730;SDS011;46580;52.114;11.674;2022-07-23T00:25:00;7.90;;;5.47;;
60730;SDS011;46580;52.114;11.674;2022-07-23T00:27:25;7.07;;;4.93;;
60730;SDS011;46580;52.114;11.674;2022-07-23T00:29:51;6.17;;;5.17;;
60730;SDS011;46580;52.114;11.674;2022-07-23T00:32:16;8.03;;;4.93;;
60730;SDS011;46580;52.114;11.674;2022-07-23T00:34:41;10.87;;;5.83;;
60730;SDS011;46580;52.114;11.674;2022-07-23T00:37:07;4.87;;;4.37;;
60730;SDS011;46580;52.114;11.674;2022-07-23T00:39:32;8.30;;;5.07;;
60730;SDS011;46580;52.114;11.674;2022-07-23T00:41:57;6.40;;;4.60;;
60730;SDS011;46580;52.114;11.674;2022-07-23T00:44:23;9.80;;;5.57;;
60730;SDS011;46580;52.114;11.674;2022-07-23T00:46:54;7.17;;;5.10;;
60730;SDS011;46580;52.114;11.674;2022-07-23T00:49:23;6.17;;;5.03;;
60730;SDS011;46580;52.114;11.674;2022-07-23T00:51:50;7.60;;;5.70;;
60730;SDS011;46580;52.114;11.674;2022-07-23T00:54:16;6.90;;;5.37;;
60730;SDS011;46580;52.114;11.674;2022-07-23T00:56:42;6.53;;;5.70;;
60730;SDS011;46580;52.114;11.674;2022-07-23T00:59:09;7.23;;;5.37;;
60730;SDS011;46580;52.114;11.674;2022-07-23T01:01:35;6.10;;;4.97;;
60730;SDS011;46580;52.114;11.674;2022-07-23T01:04:00;7.20;;;5.57;;
60730;SDS011;46580;52.114;11.674;2022-07-23T01:06:26;7.60;;;5.40;;
60730;SDS011;46580;52.114;11.674;2022-07-23T01:08:52;6.47;;;5.60;;
60730;SDS011;46580;52.114;11.674;2022-07-23T01:11:18;8.27;;;5.40;;
60730;SDS011;46580;52.114;11.674;2022-07-23T01:13:44;9.47;;;5.33;;
60730;SDS011;46580;52.114;11.674;2022-07-23T01:16:10;6.40;;;5.03;;
60730;SDS011;46580;52.114;11.674;2022-07-23T01:18:35;7.50;;;5.20;;
60730;SDS011;46580;52.114;11.674;2022-07-23T01:21:01;7.30;;;5.33;;
60730;SDS011;46580;52.114;11.674;2022-07-23T01:23:26;6.37;;;5.10;;
60730;SDS011;46580;52.114;11.674;2022-07-23T01:25:52;7.23;;;5.30;;
60730;SDS011;46580;52.114;11.674;2022-07-23T01:28:19;5.53;;;4.90;;
60730;SDS011;46580;52.114;11.674;2022-07-23T01:30:44;6.47;;;4.80;;
60730;SDS011;46580;52.114;11.674;2022-07-23T01:33:10;7.90;;;5.33;;
60730;SDS011;46580;52.114;11.674;2022-07-23T01:35:36;8.00;;;5.40;;
60730;SDS011;46580;52.114;11.674;2022-07-23T01:38:01;7.97;;;5.13;;
60730;SDS011;46580;52.114;11.674;2022-07-23T01:40:26;11.63;;;5.63;;
60730;SDS011;46580;52.114;11.674;2022-07-23T01:42:52;8.80;;;5.80;;
60730;SDS011;46580;52.114;11.674;2022-07-23T01:45:17;8.77;;;5.17;;
60730;SDS011;46580;52.114;11.674;2022-07-23T01:47:43;7.63;;;5.50;;
60730;SDS011;46580;52.114;11.674;2022-07-23T01:50:08;7.50;;;5.23;;
60730;SDS011;46580;52.114;11.674;2022-07-23T01:52:34;7.83;;;4.50;;
60730;SDS011;46580;52.114;11.674;2022-07-23T01:54:59;6.30;;;5.43;;
60730;SDS011;46580;52.114;11.674;2022-07-23T01:57:25;9.17;;;5.57;;
60730;SDS011;46580;52.114;11.674;2022-07-23T01:59:50;6.93;;;4.73;;
60730;SDS011;46580;52.114;11.674;2022-07-23T02:02:15;7.37;;;5.50;;
60730;SDS011;46580;52.114;11.674;2022-07-23T02:04:41;11.13;;;5.90;;
60730;SDS011;46580;52.114;11.674;2022-07-23T02:07:06;9.53;;;5.53;;
60730;SDS011;46580;52.114;11.674;2022-07-23T02:09:32;7.10;;;5.53;;
60730;SDS011;46580;52.114;11.674;2022-07-23T02:11:58;12.10;;;6.17;;
60730;SDS011;46580;52.114;11.674;2022-07-23T02:14:24;10.03;;;6.63;;
60730;SDS011;46580;52.114;11.674;2022-07-23T02:16:50;13.37;;;5.97;;
60730;SDS011;46580;52.114;11.674;2022-07-23T02:19:15;11.00;;;6.10;;
60730;SDS011;46580;52.114;11.674;2022-07-23T02:21:40;7.90;;;5.53;;
60730;SDS011;46580;52.114;11.674;2022-07-23T02:24:06;12.23;;;6.07;;
60730;SDS011;46580;52.114;11.674;2022-07-23T02:26:31;8.77;;;6.37;;
60730;SDS011;46580;52.114;11.674;2022-07-23T02:29:03;10.63;;;6.40;;
60730;SDS011;46580;52.114;11.674;2022-07-23T02:31:29;12.93;;;7.30;;
60730;SDS011;46580;52.114;11.674;2022-07-23T02:33:55;10.63;;;7.03;;
60730;SDS011;46580;52.114;11.674;2022-07-23T02:36:20;10.07;;;7.27;;
60730;SDS011;46580;52.114;11.674;2022-07-23T02:38:46;10.03;;;7.20;;
60730;SDS011;46580;52.114;11.674;2022-07-23T02:41:12;10.10;;;7.20;;
60730;SDS011;46580;52.114;11.674;2022-07-23T02:43:37;11.23;;;7.30;;
60730;SDS011;46580;52.114;11.674;2022-07-23T02:46:03;10.80;;;8.00;;
60730;SDS011;46580;52.114;11.674;2022-07-23T02:48:28;13.83;;;7.93;;
60730;SDS011;46580;52.114;11.674;2022-07-23T02:50:53;11.20;;;7.10;;
60730;SDS011;46580;52.114;11.674;2022-07-23T02:53:21;10.70;;;7.63;;
60730;SDS011;46580;52.114;11.674;2022-07-23T02:55:47;11.20;;;7.23;;
60730;SDS011;46580;52.114;11.674;2022-07-23T02:58:12;10.80;;;7.43;;
60730;SDS011;46580;52.114;11.674;2022-07-23T03:00:37;14.93;;;7.73;;
60730;SDS011;46580;52.114;11.674;2022-07-23T03:03:03;11.70;;;7.90;;
60730;SDS011;46580;52.114;11.674;2022-07-23T03:05:28;11.23;;;8.87;;
60730;SDS011;46580;52.114;11.674;2022-07-23T03:07:53;11.53;;;7.80;;
60730;SDS011;46580;52.114;11.674;2022-07-23T03:10:19;9.13;;;8.17;;
60730;SDS011;46580;52.114;11.674;2022-07-23T03:12:44;10.37;;;7.60;;
60730;SDS011;46580;52.114;11.674;2022-07-23T03:15:09;10.67;;;7.53;;
60730;SDS011;46580;52.114;11.674;2022-07-23T03:17:35;10.07;;;6.93;;
60730;SDS011;46580;52.114;11.674;2022-07-23T03:20:00;13.60;;;7.97;;
60730;SDS011;46580;52.114;11.674;2022-07-23T03:22:25;10.40;;;7.93;;
60730;SDS011;46580;52.114;11.674;2022-07-23T03:24:51;14.93;;;8.40;;
60730;SDS011;46580;52.114;11.674;2022-07-23T03:27:19;9.60;;;7.67;;
60730;SDS011;46580;52.114;11.674;2022-07-23T03:29:45;9.83;;;7.70;;
60730;SDS011;46580;52.114;11.674;2022-07-23T03:32:11;15.37;;;8.77;;
60730;SDS011;46580;52.114;11.674;2022-07-23T03:34:36;11.20;;;7.17;;
60730;SDS011;46580;52.114;11.674;2022-07-23T03:37:02;12.07;;;8.10;;
60730;SDS011;46580;52.114;11.674;2022-07-23T03:39:27;16.23;;;8.30;;
60730;SDS011;46580;52.114;11.674;2022-07-23T03:41:52;13.57;;;8.93;;
60730;SDS011;46580;52.114;11.674;2022-07-23T03:44:18;12.87;;;9.10;;
60730;SDS011;46580;52.114;11.674;2022-07-23T03:46:43;12.63;;;8.70;;
60730;SDS011;46580;52.114;11.674;2022-07-23T03:49:08;11.70;;;8.83;;
60730;SDS011;46580;52.114;11.674;2022-07-23T03:51:34;10.63;;;9.00;;
60730;SDS011;46580;52.114;11.674;2022-07-23T03:53:59;10.90;;;8.53;;
60730;SDS011;46580;52.114;11.674;2022-07-23T03:56:24;10.80;;;8.17;;
60730;SDS011;46580;52.114;11.674;2022-07-23T03:58:51;13.70;;;8.20;;
60730;SDS011;46580;52.114;11.674;2022-07-23T04:01:16;16.53;;;8.20;;
60730;SDS011;46580;52.114;11.674;2022-07-23T04:03:41;11.33;;;7.80;;
60730;SDS011;46580;52.114;11.674;2022-07-23T04:06:07;13.30;;;7.43;;
60730;SDS011;46580;52.114;11.674;2022-07-23T04:08:32;12.00;;;8.17;;
60730;SDS011;46580;52.114;11.674;2022-07-23T04:10:57;10.50;;;7.97;;
60730;SDS011;46580;52.114;11.674;2022-07-23T04:13:23;12.60;;;7.83;;
60730;SDS011;46580;52.114;11.674;2022-07-23T04:15:48;9.33;;;7.07;;
60730;SDS011;46580;52.114;11.674;2022-07-23T04:18:15;15.73;;;7.90;;
60730;SDS011;46580;52.114;11.674;2022-07-23T04:20:42;12.27;;;8.13;;
60730;SDS011;46580;52.114;11.674;2022-07-23T04:23:10;10.20;;;8.33;;
60730;SDS011;46580;52.114;11.674;2022-07-23T04:25:35;12.23;;;8.43;;
60730;SDS011;46580;52.114;11.674;2022-07-23T04:28:01;12.47;;;7.97;;
60730;SDS011;46580;52.114;11.674;2022-07-23T04:30:26;12.13;;;8.67;;
60730;SDS011;46580;52.114;11.674;2022-07-23T04:32:51;12.27;;;8.30;;
60730;SDS011;46580;52.114;11.674;2022-07-23T04:35:20;11.97;;;8.63;;
60730;SDS011;46580;52.114;11.674;2022-07-23T04:37:45;12.63;;;8.23;;
60730;SDS011;46580;52.114;11.674;2022-07-23T04:40:11;17.73;;;9.30;;
60730;SDS011;46580;52.114;11.674;2022-07-23T04:42:37;9.23;;;7.77;;
60730;SDS011;46580;52.114;11.674;2022-07-23T04:45:03;8.93;;;7.60;;
60730;SDS011;46580;52.114;11.674;2022-07-23T04:47:29;10.30;;;6.73;;
60730;SDS011;46580;52.114;11.674;2022-07-23T04:49:55;9.10;;;6.17;;
60730;SDS011;46580;52.114;11.674;2022-07-23T04:52:20;11.20;;;6.47;;
60730;SDS011;46580;52.114;11.674;2022-07-23T04:54:46;10.90;;;8.00;;
60730;SDS011;46580;52.114;11.674;2022-07-23T04:57:11;8.53;;;6.27;;
60730;SDS011;46580;52.114;11.674;2022-07-23T04:59:36;9.40;;;6.40;;
60730;SDS011;46580;52.114;11.674;2022-07-23T05:02:02;11.83;;;8.17;;
60730;SDS011;46580;52.114;11.674;2022-07-23T05:04:27;11.57;;;8.00;;
60730;SDS011;46580;52.114;11.674;2022-07-23T05:06:52;11.33;;;8.47;;
60730;SDS011;46580;52.114;11.674;2022-07-23T05:09:18;13.07;;;8.83;;
60730;SDS011;46580;52.114;11.674;2022-07-23T05:11:43;14.77;;;9.27;;
60730;SDS011;46580;52.114;11.674;2022-07-23T05:14:08;10.07;;;7.97;;
60730;SDS011;46580;52.114;11.674;2022-07-23T05:16:37;10.93;;;6.60;;
60730;SDS011;46580;52.114;11.674;2022-07-23T05:19:02;10.70;;;7.73;;
60730;SDS011;46580;52.114;11.674;2022-07-23T05:21:28;14.03;;;7.70;;
60730;SDS011;46580;52.114;11.674;2022-07-23T05:23:53;10.73;;;7.47;;
60730;SDS011;46580;52.114;11.674;2022-07-23T05:26:18;13.43;;;8.03;;
60730;SDS011;46580;52.114;11.674;2022-07-23T05:28:43;14.40;;;8.13;;
60730;SDS011;46580;52.114;11.674;2022-07-23T05:31:09;12.17;;;8.13;;
60730;SDS011;46580;52.114;11.674;2022-07-23T05:33:34;13.67;;;8.67;;
60730;SDS011;46580;52.114;11.674;2022-07-23T05:36:00;13.67;;;8.47;;
60730;SDS011;46580;52.114;11.674;2022-07-23T05:38:27;12.37;;;8.37;;
60730;SDS011;46580;52.114;11.674;2022-07-23T05:40:53;10.07;;;7.50;;
60730;SDS011;46580;52.114;11.674;2022-07-23T05:43:19;9.57;;;6.80;;
60730;SDS011;46580;52.114;11.674;2022-07-23T05:45:44;14.30;;;6.87;;
60730;SDS011;46580;52.114;11.674;2022-07-23T05:48:10;8.30;;;6.40;;
60730;SDS011;46580;52.114;11.674;2022-07-23T05:50:35;9.70;;;6.67;;
60730;SDS011;46580;52.114;11.674;2022-07-23T05:53:00;9.00;;;6.23;;
60730;SDS011;46580;52.114;11.674;2022-07-23T05:55:26;11.77;;;6.60;;
60730;SDS011;46580;52.114;11.674;2022-07-23T05:57:54;10.03;;;6.03;;
60730;SDS011;46580;52.114;11.674;2022-07-23T06:00:20;8.97;;;5.57;;
60730;SDS011;46580;52.114;11.674;2022-07-23T06:02:45;7.70;;;6.07;;
60730;SDS011;46580;52.114;11.674;2022-07-23T06:05:10;11.83;;;6.23;;
60730;SDS011;46580;52.114;11.674;2022-07-23T06:07:36;9.30;;;6.60;;
60730;SDS011;46580;52.114;11.674;2022-07-23T06:10:01;13.17;;;6.90;;
60730;SDS011;46580;52.114;11.674;2022-07-23T06:12:27;14.90;;;7.97;;
60730;SDS011;46580;52.114;11.674;2022-07-23T06:14:52;15.70;;;7.30;;
60730;SDS011;46580;52.114;11.674;2022-07-23T06:20:13;8.93;;;7.17;;
60730;SDS011;46580;52.114;11.674;2022-07-23T06:22:39;12.50;;;6.10;;
60730;SDS011;46580;52.114;11.674;2022-07-23T06:25:04;11.67;;;7.07;;
60730;SDS011;46580;52.114;11.674;2022-07-23T06:27:31;10.33;;;6.93;;
60730;SDS011;46580;52.114;11.674;2022-07-23T06:29:56;9.90;;;6.60;;
60730;SDS011;46580;52.114;11.674;2022-07-23T06:32:21;9.90;;;5.90;;
60730;SDS011;46580;52.114;11.674;2022-07-23T06:34:47;13.93;;;7.50;;
60730;SDS011;46580;52.114;11.674;2022-07-23T06:37:12;13.37;;;7.30;;
60730;SDS011;46580;52.114;11.674;2022-07-23T06:39:37;9.60;;;6.80;;
60730;SDS011;46580;52.114;11.674;2022-07-23T06:42:03;12.63;;;6.27;;
60730;SDS011;46580;52.114;11.674;2022-07-23T06:44:28;9.77;;;7.00;;
60730;SDS011;46580;52.114;11.674;2022-07-23T06:46:53;11.47;;;7.30;;
60730;SDS011;46580;52.114;11.674;2022-07-23T06:49:19;11.50;;;7.80;;
60730;SDS011;46580;52.114;11.674;2022-07-23T06:51:44;9.50;;;7.17;;
60730;SDS011;46580;52.114;11.674;2022-07-23T06:54:10;13.77;;;7.67;;
60730;SDS011;46580;52.114;11.674;2022-07-23T06:56:35;11.17;;;6.93;;
60730;SDS011;46580;52.114;11.674;2022-07-23T06:59:01;10.07;;;6.57;;
60730;SDS011;46580;52.114;11.674;2022-07-23T07:01:27;10.37;;;6.63;;
60730;SDS011;46580;52.114;11.674;2022-07-23T07:03:52;10.80;;;6.37;;
60730;SDS011;46580;52.114;11.674;2022-07-23T07:06:17;9.53;;;6.57;;
60730;SDS011;46580;52.114;11.674;2022-07-23T07:08:43;13.17;;;7.23;;
60730;SDS011;46580;52.114;11.674;2022-07-23T07:11:09;10.30;;;5.93;;
60730;SDS011;46580;52.114;11.674;2022-07-23T07:13:35;12.77;;;7.00;;
60730;SDS011;46580;52.114;11.674;2022-07-23T07:16:00;14.03;;;6.47;;
60730;SDS011;46580;52.114;11.674;2022-07-23T07:18:26;13.57;;;6.50;;
60730;SDS011;46580;52.114;11.674;2022-07-23T07:20:51;13.43;;;6.10;;
60730;SDS011;46580;52.114;11.674;2022-07-23T07:23:18;10.63;;;6.20;;
60730;SDS011;46580;52.114;11.674;2022-07-23T07:25:45;10.07;;;6.07;;
60730;SDS011;46580;52.114;11.674;2022-07-23T07:28:11;14.07;;;5.90;;
60730;SDS011;46580;52.114;11.674;2022-07-23T07:30:37;9.30;;;6.03;;
60730;SDS011;46580;52.114;11.674;2022-07-23T07:33:02;9.10;;;5.83;;
60730;SDS011;46580;52.114;11.674;2022-07-23T07:35:27;10.37;;;5.40;;
60730;SDS011;46580;52.114;11.674;2022-07-23T07:37:53;8.97;;;5.83;;
60730;SDS011;46580;52.114;11.674;2022-07-23T07:40:18;10.17;;;5.87;;
60730;SDS011;46580;52.114;11.674;2022-07-23T07:42:47;9.10;;;5.10;;
60730;SDS011;46580;52.114;11.674;2022-07-23T07:45:13;9.10;;;5.77;;
60730;SDS011;46580;52.114;11.674;2022-07-23T07:47:40;9.87;;;5.97;;
60730;SDS011;46580;52.114;11.674;2022-07-23T07:50:07;6.73;;;4.70;;
60730;SDS011;46580;52.114;11.674;2022-07-23T07:52:33;6.93;;;5.03;;
60730;SDS011;46580;52.114;11.674;2022-07-23T07:55:01;7.67;;;4.83;;
60730;SDS011;46580;52.114;11.674;2022-07-23T07:57:27;13.97;;;5.10;;
60730;SDS011;46580;52.114;11.674;2022-07-23T07:59:52;9.93;;;5.40;;
60730;SDS011;46580;52.114;11.674;2022-07-23T08:02:18;9.00;;;6.07;;
60730;SDS011;46580;52.114;11.674;2022-07-23T08:04:43;12.53;;;6.27;;
60730;SDS011;46580;52.114;11.674;2022-07-23T08:07:09;10.90;;;6.10;;
60730;SDS011;46580;52.114;11.674;2022-07-23T08:09:35;7.90;;;5.57;;
60730;SDS011;46580;52.114;11.674;2022-07-23T08:12:00;9.30;;;5.47;;
60730;SDS011;46580;52.114;11.674;2022-07-23T08:14:25;10.67;;;5.37;;
60730;SDS011;46580;52.114;11.674;2022-07-23T08:16:50;8.63;;;5.87;;
60730;SDS011;46580;52.114;11.674;2022-07-23T08:19:16;15.20;;;5.80;;
60730;SDS011;46580;52.114;11.674;2022-07-23T08:21:41;11.63;;;6.47;;
60730;SDS011;46580;52.114;11.674;2022-07-23T08:24:06;11.73;;;6.27;;
60730;SDS011;46580;52.114;11.674;2022-07-23T08:26:32;10.90;;;6.60;;
60730;SDS011;46580;52.114;11.674;2022-07-23T08:28:57;8.37;;;6.93;;
60730;SDS011;46580;52.114;11.674;2022-07-23T08:31:22;11.10;;;7.30;;
60730;SDS011;46580;52.114;11.674;2022-07-23T08:33:48;10.33;;;6.97;;
60730;SDS011;46580;52.114;11.674;2022-07-23T08:36:13;10.83;;;7.53;;
60730;SDS011;46580;52.114;11.674;2022-07-23T08:38:40;9.40;;;6.47;;
60730;SDS011;46580;52.114;11.674;2022-07-23T08:41:05;9.23;;;6.00;;
60730;SDS011;46580;52.114;11.674;2022-07-23T08:43:33;11.37;;;7.33;;
60730;SDS011;46580;52.114;11.674;2022-07-23T08:46:00;11.00;;;6.83;;
60730;SDS011;46580;52.114;11.674;2022-07-23T08:48:31;10.83;;;6.90;;
60730;SDS011;46580;52.114;11.674;2022-07-23T08:50:58;7.57;;;6.27;;
60730;SDS011;46580;52.114;11.674;2022-07-23T08:53:26;7.97;;;6.10;;
60730;SDS011;46580;52.114;11.674;2022-07-23T08:55:53;9.60;;;6.30;;
60730;SDS011;46580;52.114;11.674;2022-07-23T08:58:21;7.90;;;6.47;;
60730;SDS011;46580;52.114;11.674;2022-07-23T09:00:50;14.33;;;7.40;;
60730;SDS011;46580;52.114;11.674;2022-07-23T09:03:22;6.47;;;5.80;;
60730;SDS011;46580;52.114;11.674;2022-07-23T09:05:49;7.63;;;6.03;;
60730;SDS011;46580;52.114;11.674;2022-07-23T09:08:17;10.23;;;5.60;;
60730;SDS011;46580;52.114;11.674;2022-07-23T09:13:24;7.70;;;6.50;;
60730;SDS011;46580;52.114;11.674;2022-07-23T09:16:02;7.07;;;5.80;;
60730;SDS011;46580;52.114;11.674;2022-07-23T09:21:35;6.40;;;5.57;;
60730;SDS011;46580;52.114;11.674;2022-07-23T09:24:11;7.10;;;5.07;;
60730;SDS011;46580;52.114;11.674;2022-07-23T09:26:44;8.20;;;5.03;;
60730;SDS011;46580;52.114;11.674;2022-07-23T09:29:16;10.57;;;4.90;;
60730;SDS011;46580;52.114;11.674;2022-07-23T09:31:44;6.63;;;4.77;;
60730;SDS011;46580;52.114;11.674;2022-07-23T09:37:08;5.90;;;4.30;;
60730;SDS011;46580;52.114;11.674;2022-07-23T09:39:41;8.40;;;3.80;;
60730;SDS011;46580;52.114;11.674;2022-07-23T09:42:21;5.50;;;2.80;;
60730;SDS011;46580;52.114;11.674;2022-07-23T09:44:48;3.83;;;2.80;;
60730;SDS011;46580;52.114;11.674;2022-07-23T09:47:18;6.37;;;3.63;;
60730;SDS011;46580;52.114;11.674;2022-07-23T09:50:26;6.27;;;3.43;;
60730;SDS011;46580;52.114;11.674;2022-07-23T09:52:34;3.13;;;2.60;;
60730;SDS011;46580;52.114;11.674;2022-07-23T09:55:05;6.20;;;3.30;;
60730;SDS011;46580;52.114;11.674;2022-07-23T09:57:31;7.00;;;3.20;;
60730;SDS011;46580;52.114;11.674;2022-07-23T10:00:00;5.77;;;2.60;;
60730;SDS011;46580;52.114;11.674;2022-07-23T10:02:29;4.60;;;2.83;;
60730;SDS011;46580;52.114;11.674;2022-07-23T10:04:59;6.77;;;3.40;;
60730;SDS011;46580;52.114;11.674;2022-07-23T10:07:26;7.87;;;3.93;;
60730;SDS011;46580;52.114;11.674;2022-07-23T10:09:55;5.50;;;3.60;;
60730;SDS011;46580;52.114;11.674;2022-07-23T10:12:20;4.70;;;3.37;;
60730;SDS011;46580;52.114;11.674;2022-07-23T10:14:47;4.43;;;3.23;;
60730;SDS011;46580;52.114;11.674;2022-07-23T10:17:16;5.17;;;3.43;;
60730;SDS011;46580;52.114;11.674;2022-07-23T10:19:41;4.27;;;2.80;;
60730;SDS011;46580;52.114;11.674;2022-07-23T10:22:09;6.27;;;3.20;;
60730;SDS011;46580;52.114;11.674;2022-07-23T10:24:42;3.90;;;3.30;;
60730;SDS011;46580;52.114;11.674;2022-07-23T10:29:52;5.23;;;3.83;;
60730;SDS011;46580;52.114;11.674;2022-07-23T10:32:35;8.30;;;3.53;;
60730;SDS011;46580;52.114;11.674;2022-07-23T10:35:13;5.43;;;3.90;;
60730;SDS011;46580;52.114;11.674;2022-07-23T10:37:43;7.50;;;3.37;;
60730;SDS011;46580;52.114;11.674;2022-07-23T10:40:13;4.07;;;3.60;;
60730;SDS011;46580;52.114;11.674;2022-07-23T10:42:42;11.33;;;3.57;;
60730;SDS011;46580;52.114;11.674;2022-07-23T10:48:13;6.63;;;3.27;;
60730;SDS011;46580;52.114;11.674;2022-07-23T10:50:43;6.63;;;3.60;;
60730;SDS011;46580;52.114;11.674;2022-07-23T10:53:29;4.87;;;2.90;;
60730;SDS011;46580;52.114;11.674;2022-07-23T10:56:14;4.07;;;2.80;;
60730;SDS011;46580;52.114;11.674;2022-07-23T10:58:46;11.87;;;3.60;;
60730;SDS011;46580;52.114;11.674;2022-07-23T11:01:32;7.53;;;3.17;;
60730;SDS011;46580;52.114;11.674;2022-07-23T11:03:58;4.47;;;3.40;;
60730;SDS011;46580;52.114;11.674;2022-07-23T11:06:24;6.93;;;3.47;;
60730;SDS011;46580;52.114;11.674;2022-07-23T11:09:28;5.70;;;3.67;;
60730;SDS011;46580;52.114;11.674;2022-07-23T11:17:22;4.77;;;3.33;;
60730;SDS011;46580;52.114;11.674;2022-07-23T11:25:14;4.90;;;2.80;;
60730;SDS011;46580;52.114;11.674;2022-07-23T11:27:54;4.47;;;2.63;;
60730;SDS011;46580;52.114;11.674;2022-07-23T11:32:51;10.33;;;2.90;;
60730;SDS011;46580;52.114;11.674;2022-07-23T11:35:21;4.57;;;2.80;;
60730;SDS011;46580;52.114;11.674;2022-07-23T11:37:49;4.33;;;2.40;;
60730;SDS011;46580;52.114;11.674;2022-07-23T11:40:18;7.27;;;2.63;;
60730;SDS011;46580;52.114;11.674;2022-07-23T11:43:18;4.43;;;2.87;;
60730;SDS011;46580;52.114;11.674;2022-07-23T11:45:38;2.80;;;2.47;;
60730;SDS011;46580;52.114;11.674;2022-07-23T11:48:09;2.47;;;2.20;;
60730;SDS011;46580;52.114;11.674;2022-07-23T11:50:40;3.73;;;2.73;;
60730;SDS011;46580;52.114;11.674;2022-07-23T11:53:06;3.50;;;2.60;;
60730;SDS011;46580;52.114;11.674;2022-07-23T11:55:32;4.83;;;2.67;;
60730;SDS011;46580;52.114;11.674;2022-07-23T11:57:57;3.63;;;2.27;;
60730;SDS011;46580;52.114;11.674;2022-07-23T12:00:24;5.33;;;2.40;;
60730;SDS011;46580;52.114;11.674;2022-07-23T12:02:53;2.73;;;1.73;;
60730;SDS011;46580;52.114;11.674;2022-07-23T12:05:22;3.23;;;1.83;;
60730;SDS011;46580;52.114;11.674;2022-07-23T12:07:52;4.33;;;2.37;;
60730;SDS011;46580;52.114;11.674;2022-07-23T12:12:53;5.43;;;2.30;;
60730;SDS011;46580;52.114;11.674;2022-07-23T12:15:20;4.53;;;2.40;;
60730;SDS011;46580;52.114;11.674;2022-07-23T12:17:49;6.77;;;2.30;;
60730;SDS011;46580;52.114;11.674;2022-07-23T12:20:16;2.43;;;2.13;;
60730;SDS011;46580;52.114;11.674;2022-07-23T12:22:55;6.77;;;1.90;;
60730;SDS011;46580;52.114;11.674;2022-07-23T12:25:23;3.23;;;1.80;;
60730;SDS011;46580;52.114;11.674;2022-07-23T12:28:00;5.70;;;1.70;;
60730;SDS011;46580;52.114;11.674;2022-07-23T12:30:42;3.57;;;2.07;;
60730;SDS011;46580;52.114;11.674;2022-07-23T12:33:12;4.63;;;2.07;;
60730;SDS011;46580;52.114;11.674;2022-07-23T12:35:43;3.70;;;1.93;;
60730;SDS011;46580;52.114;11.674;2022-07-23T12:38:11;2.83;;;1.80;;
60730;SDS011;46580;52.114;11.674;2022-07-23T12:43:09;2.70;;;1.60;;
60730;SDS011;46580;52.114;11.674;2022-07-23T12:45:44;2.73;;;1.90;;
60730;SDS011;46580;52.114;11.674;2022-07-23T12:53:23;2.27;;;1.87;;
60730;SDS011;46580;52.114;11.674;2022-07-23T12:55:51;3.70;;;1.50;;
60730;SDS011;46580;52.114;11.674;2022-07-23T12:58:24;4.63;;;1.93;;
60730;SDS011;46580;52.114;11.674;2022-07-23T13:00:51;3.47;;;1.60;;
60730;SDS011;46580;52.114;11.674;2022-07-23T13:03:25;6.53;;;1.50;;
60730;SDS011;46580;52.114;11.674;2022-07-23T13:05:58;5.73;;;1.40;;
60730;SDS011;46580;52.114;11.674;2022-07-23T13:08:26;3.27;;;1.60;;
60730;SDS011;46580;52.114;11.674;2022-07-23T13:10:52;6.00;;;1.57;;
60730;SDS011;46580;52.114;11.674;2022-07-23T13:13:22;7.57;;;1.47;;
60730;SDS011;46580;52.114;11.674;2022-07-23T13:15:48;4.07;;;1.60;;
60730;SDS011;46580;52.114;11.674;2022-07-23T13:18:14;2.30;;;1.20;;
60730;SDS011;46580;52.114;11.674;2022-07-23T13:20:39;4.00;;;1.47;;
60730;SDS011;46580;52.114;11.674;2022-07-23T13:23:18;2.37;;;1.20;;
60730;SDS011;46580;52.114;11.674;2022-07-23T13:25:45;3.23;;;1.50;;
60730;SDS011;46580;52.114;11.674;2022-07-23T13:28:11;2.67;;;1.87;;
60730;SDS011;46580;52.114;11.674;2022-07-23T13:30:38;1.90;;;1.27;;
60730;SDS011;46580;52.114;11.674;2022-07-23T13:33:04;5.40;;;1.80;;
60730;SDS011;46580;52.114;11.674;2022-07-23T13:35:30;2.37;;;1.40;;
60730;SDS011;46580;52.114;11.674;2022-07-23T13:37:55;4.07;;;1.87;;
60730;SDS011;46580;52.114;11.674;2022-07-23T13:40:21;2.90;;;1.53;;
60730;SDS011;46580;52.114;11.674;2022-07-23T13:42:47;3.37;;;1.70;;
60730;SDS011;46580;52.114;11.674;2022-07-23T13:45:13;2.37;;;1.47;;
60730;SDS011;46580;52.114;11.674;2022-07-23T13:47:38;2.67;;;1.47;;
60730;SDS011;46580;52.114;11.674;2022-07-23T13:50:04;2.20;;;1.70;;
60730;SDS011;46580;52.114;11.674;2022-07-23T13:52:30;1.50;;;1.40;;
60730;SDS011;46580;52.114;11.674;2022-07-23T13:54:55;1.93;;;1.30;;
60730;SDS011;46580;52.114;11.674;2022-07-23T13:57:20;1.80;;;1.50;;
60730;SDS011;46580;52.114;11.674;2022-07-23T13:59:46;3.53;;;1.33;;
60730;SDS011;46580;52.114;11.674;2022-07-23T14:02:11;5.13;;;1.10;;
60730;SDS011;46580;52.114;11.674;2022-07-23T14:04:40;2.83;;;1.50;;
60730;SDS011;46580;52.114;11.674;2022-07-23T14:07:06;3.00;;;1.63;;
60730;SDS011;46580;52.114;11.674;2022-07-23T14:09:31;4.13;;;1.33;;
60730;SDS011;46580;52.114;11.674;2022-07-23T14:11:58;2.57;;;1.30;;
60730;SDS011;46580;52.114;11.674;2022-07-23T14:14:24;1.73;;;1.20;;
60730;SDS011;46580;52.114;11.674;2022-07-23T14:16:49;4.57;;;1.20;;
60730;SDS011;46580;52.114;11.674;2022-07-23T14:19:15;4.33;;;1.20;;
60730;SDS011;46580;52.114;11.674;2022-07-23T14:21:40;3.30;;;1.50;;
60730;SDS011;46580;52.114;11.674;2022-07-23T14:24:05;2.40;;;1.13;;
60730;SDS011;46580;52.114;11.674;2022-07-23T14:26:31;2.07;;;1.40;;
60730;SDS011;46580;52.114;11.674;2022-07-23T14:28:56;2.37;;;1.03;;
60730;SDS011;46580;52.114;11.674;2022-07-23T14:31:22;2.10;;;1.30;;
60730;SDS011;46580;52.114;11.674;2022-07-23T14:33:48;2.10;;;1.20;;
60730;SDS011;46580;52.114;11.674;2022-07-23T14:36:14;1.97;;;1.10;;
60730;SDS011;46580;52.114;11.674;2022-07-23T14:38:39;2.07;;;1.20;;
60730;SDS011;46580;52.114;11.674;2022-07-23T14:41:05;2.23;;;0.90;;
60730;SDS011;46580;52.114;11.674;2022-07-23T14:43:34;1.23;;;0.93;;
60730;SDS011;46580;52.114;11.674;2022-07-23T14:46:00;2.67;;;1.10;;
60730;SDS011;46580;52.114;11.674;2022-07-23T14:48:25;3.97;;;0.97;;
60730;SDS011;46580;52.114;11.674;2022-07-23T14:50:51;1.57;;;0.73;;
60730;SDS011;46580;52.114;11.674;2022-07-23T14:53:17;2.83;;;1.00;;
60730;SDS011;46580;52.114;11.674;2022-07-23T14:55:42;3.13;;;0.90;;
60730;SDS011;46580;52.114;11.674;2022-07-23T14:58:09;4.30;;;0.77;;
60730;SDS011;46580;52.114;11.674;2022-07-23T15:00:34;1.10;;;0.77;;
60730;SDS011;46580;52.114;11.674;2022-07-23T15:03:00;0.93;;;0.80;;
60730;SDS011;46580;52.114;11.674;2022-07-23T15:05:25;0.73;;;0.60;;
60730;SDS011;46580;52.114;11.674;2022-07-23T15:07:51;3.13;;;0.73;;
60730;SDS011;46580;52.114;11.674;2022-07-23T15:10:16;2.87;;;0.90;;